createdAt,value
2019-01-11T00:06:46.678Z,99.99
2019-01-11T00:17:27.896Z,99.99
2019-01-11T00:28:27.486Z,99.99
2019-01-11T00:39:10.408Z,99.99
2019-01-11T00:50:14.449Z,99.99
2019-01-11T01:01:12.440Z,99.99
2019-01-11T01:12:16.015Z,99.99
2019-01-11T01:23:19.619Z,99.99
2019-01-11T01:34:23.226Z,99.99
2019-01-11T01:45:26.700Z,96.76
2019-01-11T01:56:28.814Z,93.44
2019-01-11T02:07:30.557Z,93.02
2019-01-11T02:18:30.880Z,93.28
2019-01-11T02:29:31.365Z,93.22
2019-01-11T02:40:35.892Z,92.90
2019-01-11T02:51:39.558Z,93.01
2019-01-11T03:02:38.119Z,97.04
2019-01-11T03:13:38.172Z,98.17
2019-01-11T03:24:42.447Z,99.99
2019-01-11T03:35:39.872Z,99.99
2019-01-11T03:46:43.760Z,99.99
2019-01-11T03:57:46.980Z,99.99
2019-01-11T04:08:44.190Z,99.99
2019-01-11T04:19:48.132Z,99.99
2019-01-11T04:30:52.368Z,99.99
2019-01-11T04:41:52.134Z,99.99
2019-01-11T04:52:55.391Z,99.99
2019-01-11T05:03:56.585Z,99.99
2019-01-11T05:14:56.577Z,99.99
2019-01-11T05:25:55.119Z,99.99
2019-01-11T05:36:56.307Z,99.99
2019-01-11T05:48:01.082Z,99.99
2019-01-11T05:59:04.823Z,99.99
2019-01-11T06:10:08.510Z,99.99
2019-01-11T06:21:09.231Z,99.99
2019-01-11T06:32:13.191Z,99.99
2019-01-11T06:43:17.690Z,99.99
2019-01-11T06:54:18.324Z,99.99
2019-01-11T07:05:22.811Z,99.99
2019-01-11T07:16:23.095Z,99.99
2019-01-11T07:27:23.925Z,99.99
2019-01-11T07:38:29.191Z,99.99
2019-01-11T07:49:31.664Z,99.99
2019-01-11T08:00:30.633Z,99.99
2019-01-11T08:11:35.707Z,99.99
2019-01-11T08:22:39.792Z,96.21
2019-01-11T08:33:45.228Z,93.74
2019-01-11T08:44:47.103Z,91.83
2019-01-11T08:55:50.038Z,91.06
2019-01-11T09:06:54.396Z,89.56
2019-01-11T09:17:59.444Z,89.56
2019-01-11T09:29:04.796Z,88.55
2019-01-11T09:40:03.960Z,90.04
2019-01-11T09:51:07.515Z,89.34
2019-01-11T10:02:10.682Z,96.48
2019-01-11T10:13:15.345Z,88.92
2019-01-11T10:24:17.916Z,86.25
2019-01-11T10:35:19.599Z,84.12
2019-01-11T10:46:18.689Z,83.87
2019-01-11T10:57:16.035Z,83.98
2019-01-11T11:08:20.329Z,82.79
2019-01-11T11:19:22.622Z,80.30
2019-01-11T11:30:26.939Z,78.76
2019-01-11T11:41:27.037Z,77.42
2019-01-11T11:52:24.663Z,79.11
2019-01-11T12:03:28.874Z,76.87
2019-01-11T12:14:27.240Z,76.46
2019-01-11T12:25:25.302Z,77.76
2019-01-11T12:36:28.127Z,77.80
2019-01-11T12:47:33.131Z,77.42
2019-01-11T12:58:33.817Z,76.73
2019-01-11T13:09:34.973Z,77.80
2019-01-11T13:20:35.882Z,78.31
2019-01-11T13:31:34.791Z,78.35
2019-01-11T13:42:34.498Z,78.70
2019-01-11T13:53:32.990Z,80.46
2019-01-11T14:04:30.352Z,80.84
2019-01-11T14:15:32.971Z,81.64
2019-01-11T14:26:36.665Z,83.40
2019-01-11T14:37:35.784Z,84.27
2019-01-11T14:48:37.893Z,85.38
2019-01-11T14:59:31.125Z,88.88
2019-01-11T15:10:28.362Z,86.60
2019-01-11T15:21:31.574Z,88.85
2019-01-11T15:32:28.133Z,92.68
2019-01-11T15:43:27.388Z,93.80
2019-01-11T15:54:25.720Z,90.54
2019-01-11T16:05:25.978Z,98.93
2019-01-11T16:16:24.688Z,92.35
2019-01-11T16:27:27.155Z,98.93
2019-01-11T16:38:26.922Z,99.99
2019-01-11T16:49:30.093Z,95.68
2019-01-11T17:00:34.826Z,99.99
2019-01-11T17:11:29.793Z,99.99
2019-01-11T17:22:31.279Z,99.99
2019-01-11T17:33:32.674Z,99.99
2019-01-11T17:44:33.608Z,99.99
2019-01-11T17:55:33.992Z,99.99
2019-01-11T18:06:32.729Z,99.99
2019-01-11T18:17:33.856Z,99.99
2019-01-11T18:28:31.862Z,99.99
2019-01-11T18:39:31.136Z,99.99
2019-01-11T18:50:28.192Z,99.99
2019-01-11T19:01:29.085Z,99.99
2019-01-11T19:12:32.297Z,99.99
2019-01-11T19:23:33.550Z,99.99
2019-01-11T19:34:30.280Z,99.99
2019-01-11T19:45:33.320Z,99.99
2019-01-11T19:56:34.468Z,99.99
2019-01-11T20:07:34.212Z,99.99
2019-01-11T20:18:32.900Z,99.99
2019-01-11T20:29:30.771Z,99.99
2019-01-11T20:40:28.079Z,99.99
2019-01-11T20:51:27.693Z,99.99
2019-01-11T21:02:27.402Z,99.99
2019-01-11T21:13:25.272Z,99.99
2019-01-11T21:24:25.875Z,99.99
2019-01-11T21:35:29.074Z,99.99
2019-01-11T21:46:41.296Z,99.99
2019-01-11T21:57:36.603Z,99.99
2019-01-11T22:08:33.864Z,99.99
2019-01-11T22:19:35.206Z,99.99
2019-01-11T22:30:35.795Z,99.99
2019-01-11T22:41:39.885Z,99.99
2019-01-11T22:52:36.522Z,99.99
2019-01-11T23:03:40.455Z,99.99
2019-01-11T23:14:42.736Z,99.99
2019-01-11T23:25:44.808Z,99.99
2019-01-11T23:36:46.856Z,99.99
2019-01-11T23:47:51.835Z,99.99
2019-01-11T23:58:56.560Z,99.99
